Time;durP1;ratioP1;P1;durP2;ratioP2;P2;SDS_P1;SDS_P2;PMS_P1;PMS_P2;Temp;Humidity;BMP_temperature;BMP_pressure;BME280_temperature;BME280_humidity;BME280_pressure;Samples;Min_cycle;Max_cycle;Signal;HPM_P1;HPM_P2
2024/01/21 08:14:37;;;;;;;23.30;11.30;;;;;;;-0.49;77.03;100718.95;102274;1292;636986;-74
2024/01/21 08:17:05;;;;;;;23.00;10.80;;;;;;;-0.50;77.05;100718.61;105207;1259;94636;-75
2024/01/21 08:19:38;;;;;;;23.20;11.40;;;;;;;-0.49;77.03;100719.82;105178;1262;94399;-74
2024/01/21 08:22:10;;;;;;;34.10;14.30;;;;;;;-0.51;77.01;100721.23;104981;1266;106866;-76
2024/01/21 08:24:38;;;;;;;24.70;12.90;;;;;;;-0.49;77.08;100726.97;104874;1267;95541;-75
2024/01/21 08:27:06;;;;;;;26.70;13.80;;;;;;;-0.46;77.20;100730.10;105070;1260;107752;-75
2024/01/21 08:29:36;;;;;;;25.60;12.40;;;;;;;-0.43;77.06;100733.60;105345;1261;94304;-74
2024/01/21 08:32:07;;;;;;;29.90;13.90;;;;;;;-0.42;77.16;100729.40;105190;1257;94277;-75
2024/01/21 08:34:38;;;;;;;45.00;20.70;;;;;;;-0.41;77.07;100729.75;104989;1262;107213;-76
2024/01/21 08:37:06;;;;;;;28.60;13.90;;;;;;;-0.38;77.23;100725.04;105082;1257;95107;-75
2024/01/21 08:39:35;;;;;;;29.60;15.50;;;;;;;-0.38;77.21;100728.71;105527;1260;107541;-75
2024/01/21 08:42:06;;;;;;;31.20;14.80;;;;;;;-0.35;77.28;100727.48;105336;1261;96315;-76
2024/01/21 08:44:34;;;;;;;35.80;16.80;;;;;;;-0.30;77.31;100729.55;105366;1260;95226;-75
2024/01/21 08:47:02;;;;;;;33.70;15.90;;;;;;;-0.29;77.23;100733.06;105311;1260;108546;-75
2024/01/21 08:49:30;;;;;;;32.80;15.20;;;;;;;-0.28;77.14;100730.79;105419;1271;95243;-76
2024/01/21 08:51:59;;;;;;;32.30;16.30;;;;;;;-0.26;77.25;100732.19;105051;1256;107342;-76
2024/01/21 08:54:27;;;;;;;26.90;13.00;;;;;;;-0.22;77.22;100738.97;105118;1263;95324;-75
2024/01/21 08:56:55;;;;;;;31.40;14.50;;;;;;;-0.18;77.25;100742.80;105292;1259;95834;-74
2024/01/21 08:59:23;;;;;;;26.50;12.30;;;;;;;-0.16;77.18;100745.77;105028;1257;108165;-74
2024/01/21 09:01:51;;;;;;;27.70;13.40;;;;;;;-0.15;77.15;100746.27;105453;1260;95267;-75
2024/01/21 09:04:22;;;;;;;21.80;11.00;;;;;;;-0.16;77.16;100749.24;105197;1260;107790;-76
2024/01/21 09:06:50;;;;;;;26.20;13.70;;;;;;;-0.12;77.18;100756.23;105495;1256;95241;-77
2024/01/21 09:09:19;;;;;;;23.30;10.20;;;;;;;-0.07;77.10;100757.78;105522;1263;95322;-76
2024/01/21 09:11:48;;;;;;;25.00;12.20;;;;;;;-0.02;77.14;100759.52;105304;1257;109440;-75
2024/01/21 09:14:16;;;;;;;28.60;12.30;;;;;;;0.04;77.07;100766.65;105437;1259;95238;-77
2024/01/21 09:16:47;;;;;;;26.50;11.10;;;;;;;0.09;77.14;100763.67;105183;1259;107651;-76
2024/01/21 09:19:15;;;;;;;26.90;11.40;;;;;;;0.14;77.13;100764.89;105423;1259;95272;-75
2024/01/21 09:21:44;;;;;;;32.30;14.60;;;;;;;0.19;77.06;100763.66;105312;1256;95263;-76
2024/01/21 09:24:14;;;;;;;30.60;14.70;;;;;;;0.25;77.02;100770.61;105095;1258;108254;-77
2024/01/21 09:26:42;;;;;;;26.60;13.80;;;;;;;0.27;77.14;100771.48;105087;1262;95440;-77
2024/01/21 09:29:10;;;;;;;29.00;13.90;;;;;;;0.31;77.05;100777.05;105018;1259;106131;-76
2024/01/21 09:31:38;;;;;;;22.90;11.70;;;;;;;0.36;76.94;100776.52;105445;1258;95220;-76
2024/01/21 09:34:06;;;;;;;26.60;12.60;;;;;;;0.39;77.03;100775.11;105490;1259;95242;-77
2024/01/21 09:36:36;;;;;;;31.10;13.00;;;;;;;0.42;76.96;100775.09;105690;1257;110337;-76
2024/01/21 09:39:05;;;;;;;26.80;12.50;;;;;;;0.45;77.01;100781.02;105378;1258;96915;-74
2024/01/21 09:41:53;;;;;;;26.90;12.10;;;;;;;0.47;77.02;100777.86;105622;1255;107437;-78
2024/01/21 09:44:47;;;;;;;27.60;13.20;;;;;;;0.48;76.84;100777.52;105279;1258;95171;-78
2024/01/21 09:48:23;;;;;;;28.60;12.80;;;;;;;0.48;76.83;100774.90;105396;1259;95266;-77
2024/01/21 09:51:09;;;;;;;23.20;11.50;;;;;;;0.50;77.02;100775.59;105162;1261;108229;-77
2024/01/21 09:54:12;;;;;;;27.90;12.70;;;;;;;0.52;76.96;100786.59;104845;1260;95428;-76
2024/01/21 09:57:58;;;;;;;23.20;11.40;;;;;;;0.51;76.84;100779.42;104881;1262;107936;-75
2024/01/21 10:01:40;;;;;;;25.10;11.80;;;;;;;0.53;76.95;100776.46;105210;1267;95296;-76
2024/01/21 10:14:28;;;;;;;;;;;;;;;;;;;;;
2024/01/21 10:18:34;;;;;;;;;;;;;;;;;;;;;
2024/01/21 10:22:38;;;;;;;;;;;;;;;;;;;;;
2024/01/21 10:25:47;;;;;;;26.60;13.40;;;;;;;0.83;76.89;100754.66;104745;1263;95456;-74
2024/01/21 10:28:38;;;;;;;;;;;;;;;;;;;;;
2024/01/21 10:31:41;;;;;;;26.60;13.40;;;;;;;0.90;76.87;100749.55;104813;1267;96534;-74
2024/01/21 10:34:38;;;;;;;28.90;12.70;;;;;;;0.90;76.71;100746.40;105297;1259;107457;-74
2024/01/21 10:37:47;;;;;;;25.00;11.30;;;;;;;0.89;76.69;100748.69;105155;1270;95257;-76
2024/01/21 10:40:27;;;;;;;24.20;11.20;;;;;;;0.95;76.85;100743.77;105279;1259;95249;-75
2024/01/21 10:43:15;;;;;;;19.70;8.60;;;;;;;1.07;76.61;100744.92;105162;1261;108535;-76
2024/01/21 10:46:14;;;;;;;18.90;9.40;;;;;;;1.18;76.79;100743.97;105041;1261;96072;-76
2024/01/21 10:49:25;;;;;;;18.30;9.20;;;;;;;1.30;77.05;100748.41;104986;1259;108375;-79
2024/01/21 10:52:21;;;;;;;;;;;;;;;;;;;;;
2024/01/21 10:55:58;;;;;;;23.00;9.70;;;;;;;1.37;76.87;100756.06;105151;1261;95270;-75
2024/01/21 10:58:30;;;;;;;21.20;11.00;;;;;;;1.40;76.66;100753.42;107352;1259;109106;-74
2024/01/21 11:03:52;;;;;;;19.70;9.50;;;;;;;1.56;76.67;100757.48;102962;1289;635825;-73
2024/01/21 11:06:37;;;;;;;22.70;9.70;;;;;;;1.60;76.57;100760.95;107624;1269;92487;-74
2024/01/21 11:09:29;;;;;;;20.70;9.90;;;;;;;1.63;76.39;100756.56;108356;1257;92158;-74
2024/01/21 11:12:12;;;;;;;18.10;8.30;;;;;;;1.63;76.62;100755.31;108292;1261;106153;-74
2024/01/21 11:15:01;;;;;;;19.20;9.50;;;;;;;1.65;76.49;100755.30;108292;1261;93476;-74
2024/01/21 11:17:47;;;;;;;25.80;10.50;;;;;;;1.67;76.32;100753.01;107188;1256;291205;-75
2024/01/21 11:20:29;;;;;;;22.00;10.80;;;;;;;1.69;76.20;100751.77;105420;1258;94213;-74
2024/01/21 11:23:13;;;;;;;22.40;9.30;;;;;;;1.74;76.16;100745.44;105393;1259;94306;-74
2024/01/21 11:25:52;;;;;;;20.40;10.30;;;;;;;1.80;76.26;100743.64;105374;1267;107799;-73
2024/01/21 11:28:29;;;;;;;23.20;10.40;;;;;;;1.84;76.23;100744.64;105448;1254;95335;-76
2024/01/21 11:31:05;;;;;;;19.90;10.00;;;;;;;1.86;76.04;100736.73;105403;1260;107381;-74
2024/01/21 11:33:38;;;;;;;;;;;;;;;1.91;76.05;100734.23;105453;1256;96110;-73
2024/01/21 11:36:10;;;;;;;23.90;9.50;;;;;;;1.96;76.36;100733.33;105606;1256;95263;-74
2024/01/21 11:38:39;;;;;;;20.80;8.90;;;;;;;2.03;76.41;100735.18;105511;1258;108278;-72
2024/01/21 11:41:08;;;;;;;21.00;9.10;;;;;;;2.07;76.50;100728.13;105491;1257;95520;-72
2024/01/21 11:43:41;;;;;;;18.50;8.70;;;;;;;2.07;76.04;100727.42;105562;1257;107628;-74
2024/01/21 11:46:11;;;;;;;20.10;10.20;;;;;;;2.04;75.89;100721.86;105418;1259;95166;-74
2024/01/21 11:48:47;;;;;;;17.10;9.50;;;;;;;2.03;76.06;100721.00;105281;1254;95266;-74
2024/01/21 11:51:21;;;;;;;14.90;7.70;;;;;;;1.99;76.25;100715.98;105252;1259;108074;-74
2024/01/21 11:53:49;;;;;;;18.50;9.90;;;;;;;1.97;76.03;100711.09;105508;1259;95395;-73
2024/01/21 11:56:18;;;;;;;18.20;8.80;;;;;;;1.92;76.19;100712.19;105588;1257;107575;-73
2024/01/21 11:58:46;;;;;;;18.70;9.60;;;;;;;1.88;76.09;100709.95;105412;1257;95529;-74
2024/01/21 12:01:16;;;;;;;17.70;7.90;;;;;;;1.87;75.90;100709.45;105521;1253;95368;-74
2024/01/21 12:03:49;;;;;;;18.00;7.50;;;;;;;1.87;75.95;100710.50;105656;1254;108722;-74
2024/01/21 12:06:20;;;;;;;18.00;9.10;;;;;;;1.84;75.94;100708.59;105614;1259;95330;-73
2024/01/21 12:08:50;;;;;;;14.30;8.10;;;;;;;1.84;76.00;100702.13;105578;1269;107710;-74
2024/01/21 12:11:26;;;;;;;13.90;7.00;;;;;;;1.83;75.91;100704.77;105442;1259;95245;-73
2024/01/21 12:13:54;;;;;;;11.90;5.80;;;;;;;1.83;75.56;100704.96;105308;1259;95768;-73
2024/01/21 12:16:22;;;;;;;14.60;8.80;;;;;;;1.81;75.70;100701.13;105440;1257;108345;-74
2024/01/21 12:18:50;;;;;;;13.80;7.10;;;;;;;1.78;75.83;100696.42;105645;1258;95393;-74
2024/01/21 12:21:24;;;;;;;15.70;7.50;;;;;;;1.75;75.78;100695.92;105558;1258;107260;-74
2024/01/21 12:23:52;;;;;;;12.20;6.60;;;;;;;1.72;75.44;100692.98;105290;1254;95812;-73
2024/01/21 12:26:29;;;;;;;15.30;7.20;;;;;;;1.72;75.80;100688.09;105471;1258;95921;-75
2024/01/21 12:29:09;;;;;;;16.10;8.10;;;;;;;1.71;75.50;100686.88;105535;1257;107575;-72
2024/01/21 12:31:40;;;;;;;16.30;8.10;;;;;;;1.69;75.75;100687.94;105704;1259;95457;-72
2024/01/21 12:34:15;;;;;;;13.90;7.10;;;;;;;1.68;75.71;100687.41;105495;1264;107489;-73
2024/01/21 12:36:46;;;;;;;19.00;8.60;;;;;;;1.70;75.58;100692.47;105421;1259;95266;-72
2024/01/21 12:39:15;;;;;;;13.10;7.50;;;;;;;1.69;75.45;100693.89;105637;1258;95400;-72
2024/01/21 12:41:44;;;;;;;18.30;9.70;;;;;;;1.68;75.44;100691.27;105393;1254;107809;-77
2024/01/21 12:44:12;;;;;;;15.70;8.80;;;;;;;1.66;75.26;100687.43;105470;1257;95205;-73
2024/01/21 12:46:42;;;;;;;16.30;7.80;;;;;;;1.66;75.47;100688.66;105442;1259;107767;-75
2024/01/21 12:49:13;;;;;;;12.20;6.80;;;;;;;1.64;75.06;100685.02;105430;1254;95256;-78
2024/01/21 12:51:42;;;;;;;14.90;7.70;;;;;;;1.64;75.37;100684.30;105432;1258;95233;-73
2024/01/21 12:54:11;;;;;;;13.10;6.60;;;;;;;1.65;75.16;100681.50;105487;1259;108537;-76
2024/01/21 12:56:39;;;;;;;13.60;7.00;;;;;;;1.63;75.26;100683.09;105359;1259;95161;-73
2024/01/21 12:59:06;;;;;;;11.00;6.60;;;;;;;1.62;75.26;100679.96;105463;1259;107459;-75
2024/01/21 13:01:35;;;;;;;14.40;7.90;;;;;;;1.63;75.11;100680.82;105290;1256;95254;-75
2024/01/21 13:04:03;;;;;;;13.60;7.20;;;;;;;1.66;75.36;100677.98;105641;1258;95182;-74
2024/01/21 13:06:31;;;;;;;14.10;7.80;;;;;;;1.65;75.15;100676.61;105588;1253;108517;-76
2024/01/21 13:09:02;;;;;;;17.00;7.50;;;;;;;1.64;75.17;100675.73;105678;1259;95556;-74
2024/01/21 13:11:30;;;;;;;15.10;8.50;;;;;;;1.63;75.12;100671.02;105285;1254;107079;-73
2024/01/21 13:13:58;;;;;;;14.50;6.70;;;;;;;1.64;75.24;100667.34;105823;1257;96079;-74
2024/01/21 13:16:27;;;;;;;15.90;7.30;;;;;;;1.64;75.12;100667.00;105478;1257;95820;-75
2024/01/21 13:18:55;;;;;;;18.30;8.20;;;;;;;1.60;74.89;100662.67;105213;1257;108637;-73
2024/01/21 13:21:24;;;;;;;19.10;7.90;;;;;;;1.57;75.01;100661.65;105561;1257;95575;-77
2024/01/21 13:23:52;;;;;;;13.80;7.80;;;;;;;1.58;74.87;100663.91;105290;1264;107082;-73
2024/01/21 13:26:20;;;;;;;21.60;9.80;;;;;;;1.58;74.94;100668.12;105350;1254;95257;-74
2024/01/21 13:31:35;;;;;;;18.70;9.30;;;;;;;1.59;74.79;100672.13;108603;1254;107224;-72
2024/01/21 13:34:04;;;;;;;15.80;8.60;;;;;;;1.58;74.70;100671.08;105283;1253;95486;-74
2024/01/21 13:36:34;;;;;;;17.00;9.40;;;;;;;1.56;74.79;100666.39;105526;1254;107392;-73
2024/01/21 13:39:04;;;;;;;14.70;7.80;;;;;;;1.55;74.71;100666.23;108568;1253;93358;-74
2024/01/21 13:41:32;;;;;;;17.20;9.20;;;;;;;1.55;74.43;100669.89;108475;1254;93351;-73
2024/01/21 13:44:00;;;;;;;14.50;7.40;;;;;;;1.54;74.90;100666.22;108586;1253;108578;-73
2024/01/21 13:46:30;;;;;;;12.90;6.50;;;;;;;1.54;74.69;100662.38;108626;1257;94916;-72
2024/01/21 13:48:58;;;;;;;14.10;6.90;;;;;;;1.52;74.39;100658.56;108574;1258;105897;-73
2024/01/21 13:51:27;;;;;;;24.50;13.90;;;;;;;1.48;74.45;100653.17;108543;1253;93433;-73
2024/01/21 13:53:55;;;;;;;22.80;15.10;;;;;;;1.46;74.39;100650.23;108622;1253;93409;-72
2024/01/21 13:56:23;;;;;;;20.90;10.90;;;;;;;1.43;74.19;100654.45;105697;1253;109310;-73
2024/01/21 13:58:53;;;;;;;21.60;14.20;;;;;;;1.43;74.56;100655.50;105545;1253;95702;-72
2024/01/21 14:01:21;;;;;;;19.70;11.30;;;;;;;1.40;74.28;100653.95;105577;1259;105674;-73
2024/01/21 14:03:49;;;;;;;20.20;10.10;;;;;;;1.38;74.34;100652.39;105757;1259;95220;-73
2024/01/21 14:06:19;;;;;;;19.90;8.70;;;;;;;1.34;74.63;100652.42;105463;1254;96203;-75
2024/01/21 14:08:47;;;;;;;19.70;9.90;;;;;;;1.30;74.37;100664.17;105556;1257;107857;-73
2024/01/21 14:11:15;;;;;;;15.30;8.40;;;;;;;1.28;74.17;100669.09;105348;1253;95554;-74
2024/01/21 14:13:43;;;;;;;15.90;8.10;;;;;;;1.25;74.20;100672.41;105650;1259;107624;-71
2024/01/21 14:16:11;;;;;;;13.70;6.70;;;;;;;1.22;74.19;100669.84;105232;1261;95237;-72
2024/01/21 14:18:39;;;;;;;13.00;6.40;;;;;;;1.18;74.14;100667.59;105561;1258;95225;-74
2024/01/21 14:21:09;;;;;;;10.90;5.80;;;;;;;1.16;73.97;100671.29;105499;1259;107922;-73
2024/01/21 14:23:37;;;;;;;11.30;6.20;;;;;;;1.14;74.19;100675.15;105444;1258;96187;-73
2024/01/21 14:26:07;;;;;;;15.50;6.40;;;;;;;1.08;74.25;100677.98;105567;1253;107673;-73
2024/01/21 14:28:39;;;;;;;14.90;7.30;;;;;;;1.05;73.99;100681.50;105620;1258;95251;-73
2024/01/21 14:31:08;;;;;;;16.40;7.60;;;;;;;1.01;73.98;100680.66;105349;1259;95262;-72
2024/01/21 14:33:37;;;;;;;22.10;13.00;;;;;;;0.97;73.96;100682.96;105547;1259;109718;-72
2024/01/21 14:36:06;;;;;;;61.50;25.00;;;;;;;0.94;73.97;100688.23;105701;1259;95182;-72
2024/01/21 14:38:37;;;;;;;54.40;19.90;;;;;;;0.91;73.98;100692.61;105551;1259;106705;-74
2024/01/21 14:41:05;;;;;;;44.70;16.90;;;;;;;0.87;73.96;100695.43;105420;1258;95339;-71
2024/01/21 14:43:33;;;;;;;45.30;16.10;;;;;;;0.83;73.89;100694.39;105419;1259;95229;-71
2024/01/21 14:46:01;;;;;;;29.90;13.40;;;;;;;0.82;73.80;100691.96;105507;1260;107413;-75
2024/01/21 14:48:29;;;;;;;24.40;12.60;;;;;;;0.77;73.81;100690.96;105725;1257;95215;-73
2024/01/21 14:50:57;;;;;;;24.70;12.90;;;;;;;0.70;73.56;100689.25;105311;1258;107624;-76
2024/01/21 14:53:25;;;;;;;25.10;13.60;;;;;;;0.64;73.69;100682.13;105403;1258;95233;-75
2024/01/21 14:55:53;;;;;;;17.80;9.90;;;;;;;0.59;73.67;100680.06;105624;1254;95183;-73
2024/01/21 14:58:21;;;;;;;26.20;14.90;;;;;;;0.58;73.78;100677.80;105172;1259;107718;-72
2024/01/21 15:00:48;;;;;;;25.80;12.90;;;;;;;0.57;73.82;100678.16;105451;1258;95884;-72
2024/01/21 15:03:17;;;;;;;33.30;15.90;;;;;;;0.54;73.66;100684.45;105667;1259;106568;-73
2024/01/21 15:05:45;;;;;;;34.80;19.00;;;;;;;0.47;73.68;100688.34;105627;1261;95259;-73
2024/01/21 15:08:13;;;;;;;26.80;15.90;;;;;;;0.41;73.52;100688.54;105459;1259;96318;-74
2024/01/21 15:10:42;;;;;;;29.50;15.90;;;;;;;0.36;73.63;100691.35;105323;1260;108188;-73
2024/01/21 15:13:20;;;;;;;40.80;18.70;;;;;;;0.27;73.52;100693.30;105421;1259;95493;-71
2024/01/21 15:15:49;;;;;;;48.90;21.90;;;;;;;0.22;73.38;100691.40;105374;1267;107584;-72
2024/01/21 15:18:17;;;;;;;50.50;20.30;;;;;;;0.16;73.40;100699.28;105473;1254;96591;-72
2024/01/21 15:20:57;;;;;;;57.00;22.70;;;;;;;0.11;73.39;100692.84;105364;1259;96657;-73
2024/01/21 15:23:25;;;;;;;40.20;19.40;;;;;;;0.06;73.34;100691.30;105489;1258;109473;-83
2024/01/21 15:25:54;;;;;;;49.90;22.60;;;;;;;0.01;73.36;100697.06;105393;1258;96553;-81
2024/01/21 15:28:22;;;;;;;53.90;27.60;;;;;;;-0.03;73.46;100697.77;105421;1254;105713;-81
2024/01/21 15:30:50;;;;;;;85.00;39.10;;;;;;;-0.08;73.42;100693.25;105395;1259;97940;-80
2024/01/21 15:33:18;;;;;;;85.40;37.70;;;;;;;-0.11;73.50;100690.82;105685;1259;96968;-82
2024/01/21 15:35:46;;;;;;;126.50;54.40;;;;;;;-0.14;73.22;100690.48;105356;1259;109927;-81
2024/01/21 15:38:14;;;;;;;118.70;50.30;;;;;;;-0.16;73.52;100690.30;105482;1259;96632;-81
2024/01/21 15:40:42;;;;;;;129.70;50.40;;;;;;;-0.19;73.40;100691.88;105325;1260;107665;-81
2024/01/21 15:43:10;;;;;;;100.40;38.90;;;;;;;-0.26;73.38;100695.91;105425;1258;96704;-82
2024/01/21 15:45:38;;;;;;;83.10;32.90;;;;;;;-0.32;73.30;100704.29;105448;1268;96581;-80
2024/01/21 15:48:06;;;;;;;75.40;28.70;;;;;;;-0.33;73.24;100706.55;105253;1260;110419;-82
2024/01/21 15:50:34;;;;;;;56.00;24.00;;;;;;;-0.33;73.39;100703.08;105418;1257;97441;-81
2024/01/21 15:53:04;;;;;;;56.00;23.30;;;;;;;-0.35;73.15;100704.81;105499;1270;107765;-78
2024/01/21 15:55:31;;;;;;;40.00;17.40;;;;;;;-0.36;73.30;100712.30;105338;1266;97899;-81
2024/01/21 15:58:00;;;;;;;51.40;20.60;;;;;;;-0.37;73.23;100707.95;105322;1260;96599;-82
2024/01/21 16:00:32;;;;;;;48.60;18.60;;;;;;;-0.40;73.25;100699.60;105552;1260;109904;-80
2024/01/21 16:03:03;;;;;;;37.70;15.60;;;;;;;-0.43;73.29;100694.73;105836;1256;96626;-78
2024/01/21 16:05:31;;;;;;;32.40;14.00;;;;;;;-0.43;73.32;100688.80;105534;1256;107563;-82
2024/01/21 16:07:59;;;;;;;30.70;14.80;;;;;;;-0.48;73.15;100690.19;105389;1264;96621;-82
2024/01/21 16:10:27;;;;;;;34.20;15.70;;;;;;;-0.49;73.14;100688.80;105529;1258;96620;-81
2024/01/21 16:12:55;;;;;;;36.20;17.00;;;;;;;-0.52;73.17;100686.89;105762;1253;109985;-78
2024/01/21 16:15:23;;;;;;;31.40;14.10;;;;;;;-0.54;72.99;100686.70;105918;1257;96606;-81
2024/01/21 16:17:58;;;;;;;23.70;12.10;;;;;;;-0.57;72.98;100686.70;105497;1260;107608;-81
2024/01/21 16:20:26;;;;;;;28.30;13.20;;;;;;;-0.60;73.05;100689.33;105517;1260;96591;-81
2024/01/21 16:22:56;;;;;;;27.70;13.40;;;;;;;-0.61;73.09;100692.13;105712;1259;97173;-82
2024/01/21 16:25:25;;;;;;;20.60;10.70;;;;;;;-0.62;73.21;100695.78;105755;1267;109631;-81
2024/01/21 16:27:52;;;;;;;20.20;10.40;;;;;;;-0.63;72.96;100692.83;105434;1260;96693;-81
2024/01/21 16:30:20;;;;;;;22.30;11.20;;;;;;;-0.67;73.16;100699.97;105533;1257;107539;-81
2024/01/21 16:32:48;;;;;;;21.50;10.50;;;;;;;-0.69;73.07;100691.26;105376;1259;96620;-81
2024/01/21 16:35:16;;;;;;;22.00;10.20;;;;;;;-0.71;72.94;100691.95;105455;1259;96594;-82
2024/01/21 16:37:44;;;;;;;13.70;7.40;;;;;;;-0.72;72.98;100689.34;105408;1257;107797;-82
2024/01/21 16:40:13;;;;;;;18.60;8.90;;;;;;;-0.74;73.08;100683.59;105728;1260;96564;-81
2024/01/21 16:42:41;;;;;;;17.50;8.70;;;;;;;-0.77;73.17;100679.23;105640;1259;107471;-83
2024/01/21 16:45:16;;;;;;;16.80;8.20;;;;;;;-0.77;73.07;100668.09;105328;1266;97052;-80
2024/01/21 16:47:44;;;;;;;15.10;8.20;;;;;;;-0.78;73.07;100659.90;105601;1259;96565;-81
2024/01/21 16:50:13;;;;;;;16.20;9.80;;;;;;;-0.79;73.06;100653.98;105579;1257;111288;-82
2024/01/21 16:52:44;;;;;;;15.50;8.60;;;;;;;-0.79;73.12;100652.58;105599;1253;96542;-83
2024/01/21 16:55:12;;;;;;;18.20;9.00;;;;;;;-0.80;73.08;100654.84;105456;1260;107635;-82
2024/01/21 16:57:40;;;;;;;19.60;9.80;;;;;;;-0.83;73.13;100655.38;105452;1267;96597;-79
2024/01/21 17:00:22;;;;;;;21.70;10.10;;;;;;;-0.84;73.05;100653.46;105551;1257;96677;-82
2024/01/21 17:02:51;;;;;;;20.60;10.60;;;;;;;-0.85;72.95;100657.64;105588;1259;108860;-82
2024/01/21 17:05:20;;;;;;;22.40;10.60;;;;;;;-0.86;73.11;100658.34;105349;1268;96600;-83
2024/01/21 17:07:48;;;;;;;17.40;8.10;;;;;;;-0.87;72.94;100656.08;105421;1262;107690;-82
2024/01/21 17:10:21;;;;;;;14.70;7.70;;;;;;;-0.88;73.06;100653.98;105354;1256;96680;-82
2024/01/21 17:12:51;;;;;;;;;;;;;;;-0.90;72.89;100654.15;105214;1267;96646;-82
2024/01/21 17:15:19;;;;;;;17.80;8.70;;;;;;;-0.91;72.89;100663.55;105387;1259;109651;-83
2024/01/21 17:17:52;;;;;;;20.40;10.10;;;;;;;-0.92;73.10;100665.13;105467;1260;97436;-83
2024/01/21 17:20:20;;;;;;;18.00;9.60;;;;;;;-0.93;72.93;100664.43;105311;1258;107161;-83
2024/01/21 17:22:48;;;;;;;16.80;7.10;;;;;;;-0.93;73.06;100664.09;105600;1260;97308;-83
2024/01/21 17:25:16;;;;;;;22.00;10.00;;;;;;;-0.93;73.03;100660.44;105667;1259;96529;-83
2024/01/21 17:27:44;;;;;;;18.00;10.10;;;;;;;-0.93;72.96;100654.15;105253;1260;110536;-83
2024/01/21 17:30:12;;;;;;;19.10;9.20;;;;;;;-0.97;72.79;100646.83;105225;1258;97920;-83
2024/01/21 17:32:40;;;;;;;21.20;10.30;;;;;;;-0.99;72.80;100651.02;105306;1254;108184;-82
2024/01/21 17:35:08;;;;;;;20.50;10.20;;;;;;;-0.99;72.91;100654.66;105531;1262;96619;-82
2024/01/21 17:37:36;;;;;;;25.10;11.20;;;;;;;-0.99;73.12;100654.50;105252;1260;96597;-80
2024/01/21 17:40:06;;;;;;;20.20;10.10;;;;;;;-1.00;72.96;100644.05;105259;1259;110114;-83
2024/01/21 17:42:34;;;;;;;21.30;10.10;;;;;;;-1.01;72.80;100644.23;105508;1266;96770;-83
2024/01/21 17:45:04;;;;;;;22.20;10.10;;;;;;;-1.01;72.81;100639.52;105677;1267;107266;-81
2024/01/21 17:47:33;;;;;;;19.80;9.30;;;;;;;-1.00;72.74;100639.17;105512;1260;96630;-82
2024/01/21 17:50:05;;;;;;;20.50;10.10;;;;;;;-1.00;72.84;100637.95;105340;1257;96599;-78
2024/01/21 17:52:33;;;;;;;20.30;9.30;;;;;;;-1.00;72.91;100637.95;105421;1257;109884;-83
2024/01/21 17:55:01;;;;;;;20.60;9.40;;;;;;;-1.00;72.82;100635.34;105491;1256;96607;-83
2024/01/21 17:57:31;;;;;;;17.00;8.20;;;;;;;-1.00;72.74;100639.52;105709;1258;107350;-82
2024/01/21 17:59:59;;;;;;;19.00;9.70;;;;;;;-0.98;72.91;100637.78;107814;1257;96763;-81
2024/01/21 18:02:27;;;;;;;23.80;10.30;;;;;;;-0.95;72.99;100634.12;105726;1257;96600;-82
2024/01/21 18:04:58;;;;;;;20.20;9.50;;;;;;;-0.92;73.02;100632.91;105654;1259;109955;-80
2024/01/21 18:07:26;;;;;;;20.60;9.30;;;;;;;-0.90;72.75;100627.86;105577;1257;97432;-82
2024/01/21 18:09:54;;;;;;;21.70;9.60;;;;;;;-0.87;72.81;100629.60;105522;1258;107632;-80
2024/01/21 18:12:22;;;;;;;24.00;10.30;;;;;;;-0.84;72.95;100626.46;105964;1254;97419;-82
2024/01/21 18:14:49;;;;;;;20.70;9.50;;;;;;;-0.83;72.91;100625.42;105538;1257;96498;-81
2024/01/21 18:17:17;;;;;;;16.10;8.40;;;;;;;-0.80;72.76;100619.33;105699;1257;110087;-82
2024/01/21 18:19:45;;;;;;;24.80;11.90;;;;;;;-0.78;72.86;100615.82;105343;1257;96618;-82
2024/01/21 18:22:15;;;;;;;19.40;9.40;;;;;;;-0.77;72.88;100618.96;105560;1259;106944;-82
2024/01/21 18:24:46;;;;;;;25.80;11.90;;;;;;;-0.75;72.95;100620.01;105588;1258;97925;-78
2024/01/21 18:27:14;;;;;;;22.00;10.40;;;;;;;-0.74;72.94;100621.40;105667;1253;97528;-75
2024/01/21 18:29:42;;;;;;;24.50;11.20;;;;;;;-0.73;72.77;100616.68;105573;1257;108730;-77
2024/01/21 18:32:10;;;;;;;18.40;9.70;;;;;;;-0.73;72.85;100613.21;105368;1254;97460;-79
2024/01/21 18:34:40;;;;;;;17.20;9.10;;;;;;;-0.73;72.80;100605.71;105406;1257;106837;-79
2024/01/21 18:37:08;;;;;;;16.40;8.00;;;;;;;-0.71;72.87;100605.55;105410;1257;96633;-76
2024/01/21 18:39:35;;;;;;;20.00;9.20;;;;;;;-0.70;72.82;100599.79;105521;1254;96664;-77
2024/01/21 18:42:03;;;;;;;15.10;8.20;;;;;;;-0.70;72.95;100591.26;105536;1257;109683;-77
2024/01/21 18:44:33;;;;;;;15.10;8.50;;;;;;;-0.68;72.80;100585.49;105377;1254;97869;-76
2024/01/21 18:47:01;;;;;;;17.10;9.20;;;;;;;-0.68;72.91;100583.41;105662;1257;107386;-77
2024/01/21 18:49:29;;;;;;;20.70;9.20;;;;;;;-0.67;72.97;100575.39;105439;1266;96610;-80
2024/01/21 18:52:00;;;;;;;14.50;7.40;;;;;;;-0.67;72.82;100571.21;105622;1254;97030;-79
2024/01/21 18:54:34;;;;;;;21.10;9.20;;;;;;;-0.66;72.78;100565.27;105532;1257;109496;-87
2024/01/21 18:57:02;;;;;;;20.70;9.40;;;;;;;-0.65;72.90;100559.19;105401;1259;96758;-80
2024/01/21 18:59:30;;;;;;;19.90;9.40;;;;;;;-0.65;72.71;100553.09;105430;1257;107606;-84
2024/01/21 19:01:58;;;;;;;15.60;7.90;;;;;;;-0.65;72.86;100547.69;108485;1254;94524;-88
2024/01/21 19:04:26;;;;;;;16.70;8.00;;;;;;;-0.65;72.73;100544.73;108270;1253;94551;-89
2024/01/21 19:07:08;;;;;;;19.40;8.80;;;;;;;-0.65;72.86;100542.11;105407;1258;110043;-78
2024/01/21 19:09:37;;;;;;;16.00;8.30;;;;;;;-0.63;72.78;100544.89;105436;1257;97819;-89
2024/01/21 19:12:06;;;;;;;19.80;10.30;;;;;;;-0.63;72.75;100547.16;105611;1267;107688;-86
2024/01/21 19:14:35;;;;;;;16.10;8.30;;;;;;;-0.62;72.84;100552.04;105562;1258;96593;-79
2024/01/21 19:17:03;;;;;;;18.70;9.20;;;;;;;-0.63;72.75;100553.95;105365;1254;96597;-86
2024/01/21 19:19:31;;;;;;;19.60;9.50;;;;;;;-0.63;72.80;100562.32;105355;1254;109052;-85
2024/01/21 19:21:59;;;;;;;19.90;10.10;;;;;;;-0.62;72.81;100562.13;105541;1254;96697;-81
2024/01/21 19:24:27;;;;;;;18.90;10.20;;;;;;;-0.62;72.78;100569.64;105296;1264;107111;-85
2024/01/21 19:26:55;;;;;;;17.90;8.90;;;;;;;-0.63;72.69;100569.65;105287;1258;96597;-83
2024/01/21 19:29:24;;;;;;;18.00;7.70;;;;;;;-0.61;72.69;100573.11;105138;1258;96508;-84
2024/01/21 19:31:52;;;;;;;18.50;10.30;;;;;;;-0.60;72.72;100575.89;105430;1254;109500;-85
2024/01/21 19:34:20;;;;;;;19.60;10.20;;;;;;;-0.58;72.84;100579.20;105384;1254;96542;-80
2024/01/21 19:36:49;;;;;;;21.30;9.90;;;;;;;-0.57;72.84;100575.36;105441;1254;107165;-85
2024/01/21 19:39:16;;;;;;;20.50;10.10;;;;;;;-0.54;72.81;100569.77;105278;1258;97943;-84
2024/01/21 19:41:44;;;;;;;17.10;9.70;;;;;;;-0.55;72.88;100562.80;105151;1253;96603;-85
2024/01/21 19:44:13;;;;;;;17.10;8.20;;;;;;;-0.53;72.90;100558.27;105199;1257;109490;-83
2024/01/21 19:46:41;;;;;;;17.10;8.90;;;;;;;-0.53;72.86;100551.83;107144;1254;97260;-81
2024/01/21 19:49:09;;;;;;;19.30;10.20;;;;;;;-0.52;72.78;100546.08;105525;1254;105382;-82
2024/01/21 19:51:37;;;;;;;16.50;9.80;;;;;;;-0.52;72.82;100540.84;106091;1255;97423;-86
2024/01/21 19:54:05;;;;;;;20.70;9.60;;;;;;;-0.52;72.56;100531.79;105378;1254;96632;-83
2024/01/21 19:56:34;;;;;;;17.40;9.60;;;;;;;-0.52;72.77;100528.30;105348;1267;109427;-84
2024/01/21 19:59:02;;;;;;;18.70;9.80;;;;;;;-0.53;72.80;100518.89;105345;1256;96537;-77
2024/01/21 20:01:29;;;;;;;16.90;7.80;;;;;;;-0.53;72.69;100518.02;105390;1258;107572;-84
2024/01/21 20:03:57;;;;;;;19.80;8.80;;;;;;;-0.53;72.82;100511.92;105534;1258;96599;-77
2024/01/21 20:06:25;;;;;;;23.00;9.90;;;;;;;-0.53;72.74;100513.49;105647;1257;96624;-80